Flight Track Log - Related Links

Times and Time Zones

All times are in EDT time to prevent confusion due to time zone crossing. See the N8257H flight status page for this flight to view local times or setup timezone preferences in your user account.

Time Position Orientation Groundspeed Altitude Reporting Facility
EDT Latitude Longitude Course Direction KTS MPH feet Rate Location/Type
Sat 05:35:47 PM 42.3869 -82.9925 277° West 135 155 1,900  Level Cleveland Center
Sat 05:36:47 PM 42.3781 -83.0200 246° West 168 193 2,800 567 Climbing Cleveland Center
Sat 05:37:54 PM 42.4294 -83.0586 331° Northwest 198 228 3,100 141 Climbing Cleveland Center
Sat 05:38:55 PM 42.4700 -83.1081 318° Northwest 194 223 3,100  Level Cleveland Center
Sat 05:39:56 PM 42.5106 -83.1606 316° Northwest 196 226 3,100  Level Cleveland Center
Sat 05:40:57 PM 42.5556 -83.2017 326° Northwest 196 226 3,100 541 Level Cleveland Center
Sat 05:41:00 PM 42.4519 -83.4363 277° West  Level FlightAware Approximate
Sat 05:41:58 PM 42.5961 -83.2431 323° Northwest 170 196 4,200  Level Cleveland Center
Sat 05:42:59 PM 42.6306 -83.2839 319° Northwest 171 197 5,000 466 Climbing Cleveland Center
Sat 05:43:54 PM 42.6692 -83.3308 318° Northwest 204 235 5,100 265 Climbing Cleveland Center
Sat 05:45:00 PM 42.7166 -83.3700 329° Northwest  Level FlightAware Approximate
Sat 05:52:00 PM 43.0034 -83.6507 322° Northwest  Level FlightAware Approximate
Sat 05:53:00 PM 43.0429 -83.6936 322° Northwest  Level FlightAware Approximate
Sat 05:54:00 PM 43.0824 -83.7366 322° Northwest  Level FlightAware Approximate
Sat 05:54:19 PM 43.1036 -83.7903 322° Northwest 202 232 8,000  Level Minneapolis Center
Sat 05:55:00 PM 43.1219 -83.7796 321° Northwest  Level FlightAware Approximate
Sat 05:55:21 PM 43.1483 -83.8389 322° Northwest 202 232 8,000  Level Minneapolis Center
Sat 05:56:00 PM 43.1613 -83.8227 321° Northwest  Level FlightAware Approximate
Sat 05:56:22 PM 43.1908 -83.8850 322° Northwest 201 231 8,000  Level Minneapolis Center
Sat 05:57:00 PM 43.2007 -83.8659 321° Northwest  Level FlightAware Approximate
Sat 05:57:24 PM 43.2378 -83.9308 325° Northwest 201 231 8,000  Level Minneapolis Center
Sat 05:58:00 PM 43.2402 -83.9089 322° Northwest  Level FlightAware Approximate
Sat 05:58:25 PM 43.2828 -83.9775 323° Northwest 203 234 8,000  Level Minneapolis Center
Sat 05:59:00 PM 43.2797 -83.9520 322° Northwest  Level FlightAware Approximate
Sat 05:59:27 PM 43.3258 -84.0267 320° Northwest 203 234 8,000  Level Minneapolis Center
Sat 06:00:28 PM 43.3717 -84.0678 327° Northwest 201 231 7,900  Descending Minneapolis Center
Sat 06:01:29 PM 43.4144 -84.1142 322° Northwest 199 229 8,000 49 Climbing Minneapolis Center
Sat 06:02:31 PM 43.4650 -84.1722 320° Northwest 199 229 8,000  Level Minneapolis Center
Sat 06:03:33 PM 43.5092 -84.2197 322° Northwest 199 229 8,000  Level Minneapolis Center
Sat 06:04:34 PM 43.5522 -84.2658 322° Northwest 199 229 8,000  Level Minneapolis Center
Sat 06:05:36 PM 43.5947 -84.3122 322° Northwest 198 228 8,000  Level Minneapolis Center
Sat 06:06:37 PM 43.6372 -84.3583 322° Northwest 197 227 8,000  Level Minneapolis Center
Sat 06:07:39 PM 43.6800 -84.4036 323° Northwest 195 224 8,000  Level Minneapolis Center
Sat 06:08:40 PM 43.7297 -84.4619 320° Northwest 195 224 8,000  Level Minneapolis Center
Sat 06:09:42 PM 43.7744 -84.5069 324° Northwest 197 227 8,000  Level Minneapolis Center
Sat 06:10:43 PM 43.8200 -84.5483 327° Northwest 197 227 8,000  Level Minneapolis Center
Sat 06:11:45 PM 43.8617 -84.5964 320° Northwest 196 226 8,000  Level Minneapolis Center
Sat 06:12:46 PM 43.9025 -84.6458 319° Northwest 196 226 8,000  Level Minneapolis Center
Sat 06:13:48 PM 43.9447 -84.6947 320° Northwest 197 227 8,000  Level Minneapolis Center
Sat 06:14:49 PM 43.9869 -84.7428 321° Northwest 197 227 8,000  Level Minneapolis Center
Sat 06:15:51 PM 44.0267 -84.7872 321° Northwest 193 222 8,000  Level Minneapolis Center
Sat 06:16:52 PM 44.0778 -84.8428 322° Northwest 193 222 8,000  Level Minneapolis Center
Sat 06:17:54 PM 44.1192 -84.8892 321° Northwest 192 221 8,000  Level Minneapolis Center
Sat 06:18:55 PM 44.1617 -84.9353 322° Northwest 193 222 8,000 -98 Level Minneapolis Center
Sat 06:19:57 PM 44.2039 -84.9850 320° Northwest 196 226 7,800 -195 Descending Minneapolis Center
Sat 06:20:58 PM 44.2500 -85.0294 325° Northwest 199 229 7,600 -244 Descending Minneapolis Center
Sat 06:22:00 PM 44.2969 -85.0708 328° Northwest 199 229 7,300 -341 Descending Minneapolis Center
Sat 06:23:01 PM 44.3503 -85.0967 341° North 199 229 6,900 -492 Descending Minneapolis Center
Sat 06:24:02 PM 44.4100 -85.1436 331° Northwest 204 235 6,300 -634 Descending Minneapolis Center
Sat 06:25:04 PM 44.4478 -85.2069 310° West 210 242 5,600 -634 Descending Minneapolis Center
Sat 06:26:05 PM 44.4836 -85.2686 309° West 208 239 5,000 -537 Descending Minneapolis Center
Sat 06:27:07 PM 44.5236 -85.3211 317° Northwest 203 234 4,500 -537 Descending Minneapolis Center
Sat 06:28:08 PM 44.5664 -85.3708 320° Northwest 201 231 3,900 -585 Descending Minneapolis Center
Sat 06:29:10 PM 44.6100 -85.4214 320° Northwest 202 232 3,300 -732 Descending Minneapolis Center
Sat 06:30:11 PM 44.6586 -85.4567 333° Northwest 200 230 2,400 -683 Descending Minneapolis Center
Sat 06:31:13 PM 44.7061 -85.4853 337° Northwest 194 223 1,900 -537 Descending Minneapolis Center
Sat 06:32:14 PM 44.7369 -85.5242 318° Northwest 151 174 1,300 -293 Descending Minneapolis Center
Sat 06:33:16 PM 44.7456 -85.5631 287° West 143 165 1,300  Level Minneapolis Center

Login

Don't have an account? Register now (free) for customized features, flight alerts, and more!